createdAt,value
2022-08-18T00:02:03.704Z,20.83
2022-08-18T00:04:35.771Z,20.79
2022-08-18T00:07:04.843Z,20.76
2022-08-18T00:09:35.822Z,20.79
2022-08-18T00:12:06.872Z,20.77
2022-08-18T00:14:35.171Z,20.72
2022-08-18T00:17:03.034Z,20.70
2022-08-18T00:19:47.409Z,20.70
2022-08-18T00:22:18.794Z,20.67
2022-08-18T00:24:52.467Z,20.68
2022-08-18T00:27:23.125Z,20.64
2022-08-18T00:29:52.372Z,20.66
2022-08-18T00:32:22.969Z,20.66
2022-08-18T00:34:50.994Z,20.64
2022-08-18T00:37:19.065Z,20.68
2022-08-18T00:39:48.368Z,20.68
2022-08-18T00:42:27.664Z,20.67
2022-08-18T00:45:00.998Z,20.66
2022-08-18T00:47:36.393Z,20.62
2022-08-18T00:50:15.056Z,20.58
2022-08-18T00:52:48.019Z,20.57
2022-08-18T00:55:19.408Z,20.56
2022-08-18T00:57:49.728Z,20.50
2022-08-18T01:00:18.123Z,20.49
2022-08-18T01:02:55.532Z,20.51
2022-08-18T01:05:30.441Z,20.55
2022-08-18T01:07:58.407Z,20.53
2022-08-18T01:10:27.853Z,20.50
2022-08-18T01:12:58.528Z,20.46
2022-08-18T01:15:30.454Z,20.46
2022-08-18T01:18:17.573Z,20.47
2022-08-18T01:21:16.034Z,20.48
2022-08-18T01:23:46.678Z,20.50
2022-08-18T01:26:16.761Z,20.47
2022-08-18T01:28:46.491Z,20.49
2022-08-18T01:31:32.426Z,20.52
2022-08-18T01:34:01.139Z,20.56
2022-08-18T01:36:29.832Z,20.58
2022-08-18T01:38:58.979Z,20.55
2022-08-18T01:41:30.267Z,20.55
2022-08-18T01:44:00.137Z,20.54
2022-08-18T01:46:29.552Z,20.48
2022-08-18T01:49:01.226Z,20.46
2022-08-18T01:51:39.327Z,20.44
2022-08-18T01:54:12.821Z,20.41
2022-08-18T01:56:42.365Z,20.34
2022-08-18T01:59:14.612Z,20.38
2022-08-18T02:01:43.366Z,20.43
2022-08-18T02:04:36.148Z,20.46
2022-08-18T02:07:07.665Z,20.47
2022-08-18T02:09:38.402Z,20.47
2022-08-18T02:12:07.994Z,20.43
2022-08-18T02:14:36.799Z,20.47
2022-08-18T02:17:07.698Z,20.50
2022-08-18T02:19:36.699Z,20.50
2022-08-18T02:22:05.987Z,20.48
2022-08-18T02:24:33.729Z,20.49
2022-08-18T02:27:02.882Z,20.42
2022-08-18T02:29:30.642Z,20.41
2022-08-18T02:31:58.519Z,20.40
2022-08-18T02:34:26.563Z,20.41
2022-08-18T02:36:54.622Z,20.36
2022-08-18T02:39:22.507Z,20.35
2022-08-18T02:41:50.336Z,20.32
2022-08-18T02:44:19.563Z,20.29
2022-08-18T02:46:47.390Z,20.29
2022-08-18T02:49:15.163Z,20.30
2022-08-18T02:51:46.263Z,20.30
2022-08-18T02:54:14.093Z,20.30
2022-08-18T02:56:42.637Z,20.29
2022-08-18T02:59:13.344Z,20.20
2022-08-18T03:01:45.939Z,20.16
2022-08-18T03:04:17.556Z,20.19
2022-08-18T03:06:46.350Z,20.22
2022-08-18T03:09:16.690Z,20.25
2022-08-18T03:11:44.856Z,20.20
2022-08-18T03:14:13.452Z,20.23
2022-08-18T03:16:53.667Z,20.27
2022-08-18T03:19:23.783Z,20.30
2022-08-18T03:21:52.786Z,20.30
2022-08-18T03:24:22.742Z,20.33
2022-08-18T03:26:52.944Z,20.33
2022-08-18T03:29:21.513Z,20.31
2022-08-18T03:31:51.490Z,20.30
2022-08-18T03:34:21.392Z,20.25
2022-08-18T03:36:49.904Z,20.22
2022-08-18T03:39:19.118Z,20.22
2022-08-18T03:41:59.458Z,20.25
2022-08-18T03:44:30.750Z,20.27
2022-08-18T03:47:01.469Z,20.26
2022-08-18T03:49:29.656Z,20.27
2022-08-18T03:52:00.066Z,20.27
2022-08-18T03:54:28.505Z,20.30
2022-08-18T03:56:56.308Z,20.29
2022-08-18T03:59:27.035Z,20.28
2022-08-18T04:01:56.329Z,20.31
2022-08-18T04:04:27.597Z,20.31
2022-08-18T04:06:58.450Z,20.30
2022-08-18T04:09:29.294Z,20.29
2022-08-18T04:11:57.976Z,20.31
2022-08-18T04:14:29.714Z,20.30
2022-08-18T04:16:58.491Z,20.31
2022-08-18T04:19:28.262Z,20.33
2022-08-18T04:21:58.188Z,20.35
2022-08-18T04:24:28.011Z,20.36
2022-08-18T04:26:58.327Z,20.37
2022-08-18T04:29:26.133Z,20.38
2022-08-18T04:31:53.911Z,20.41
2022-08-18T04:34:23.437Z,20.42
2022-08-18T04:36:54.575Z,20.40
2022-08-18T04:39:23.455Z,20.38
2022-08-18T04:41:51.945Z,20.35
2022-08-18T04:44:21.617Z,20.37
2022-08-18T04:46:52.779Z,20.38
2022-08-18T04:49:26.114Z,20.37
2022-08-18T04:52:30.983Z,20.36
2022-08-18T04:55:03.635Z,20.34
2022-08-18T04:57:34.842Z,20.34
2022-08-18T05:00:04.125Z,20.34
2022-08-18T05:02:33.026Z,20.36
2022-08-18T05:05:04.099Z,20.43
2022-08-18T05:07:33.675Z,20.43
2022-08-18T05:10:01.692Z,20.39
2022-08-18T05:12:29.720Z,20.40
2022-08-18T05:14:57.968Z,20.43
2022-08-18T05:17:30.576Z,20.47
2022-08-18T05:20:00.047Z,20.51
2022-08-18T05:22:31.019Z,20.53
2022-08-18T05:25:01.038Z,20.50
2022-08-18T05:27:33.304Z,20.52
2022-08-18T05:30:01.197Z,20.40
2022-08-18T05:32:47.662Z,20.40
2022-08-18T05:35:23.226Z,20.49
2022-08-18T05:38:27.977Z,20.56
2022-08-18T05:41:08.619Z,20.63
2022-08-18T05:43:51.381Z,20.78
2022-08-18T05:46:21.944Z,21.36
2022-08-18T05:48:50.035Z,21.72
2022-08-18T05:51:22.886Z,22.02
2022-08-18T05:54:08.032Z,22.24
2022-08-18T05:56:48.901Z,22.52
2022-08-18T05:59:23.685Z,22.54
2022-08-18T06:01:57.646Z,22.52
2022-08-18T06:04:34.339Z,22.52
2022-08-18T06:07:06.516Z,22.56
2022-08-18T06:09:37.310Z,22.64
2022-08-18T06:12:22.632Z,22.68
2022-08-18T06:14:51.071Z,22.67
2022-08-18T06:17:36.811Z,22.73
2022-08-18T06:20:16.179Z,22.88
2022-08-18T06:22:59.617Z,22.98
2022-08-18T06:25:35.778Z,23.07
2022-08-18T06:28:10.969Z,23.07
2022-08-18T06:30:50.063Z,23.15
2022-08-18T06:33:36.049Z,23.15
2022-08-18T06:36:12.635Z,23.20
2022-08-18T06:38:57.828Z,23.18
2022-08-18T06:41:41.688Z,23.17
2022-08-18T06:44:14.833Z,23.30
2022-08-18T06:46:48.178Z,23.17
2022-08-18T06:49:30.169Z,23.21
2022-08-18T06:51:57.987Z,23.30
2022-08-18T06:54:31.332Z,23.26
2022-08-18T06:57:00.117Z,23.30
2022-08-18T06:59:31.612Z,23.34
2022-08-18T07:02:02.635Z,22.97
2022-08-18T07:04:39.889Z,23.11
2022-08-18T07:07:17.290Z,23.39
2022-08-18T07:09:45.398Z,23.53
2022-08-18T07:12:21.897Z,23.58
2022-08-18T07:14:53.042Z,23.65
2022-08-18T07:17:43.100Z,23.76
2022-08-18T07:20:21.391Z,23.46
2022-08-18T07:22:59.899Z,23.27
2022-08-18T07:25:32.075Z,23.25
2022-08-18T07:28:01.985Z,23.42
2022-08-18T07:30:35.978Z,23.40
2022-08-18T07:33:12.188Z,23.44
2022-08-18T07:35:46.018Z,23.66
2022-08-18T07:38:41.952Z,23.77
2022-08-18T07:41:20.210Z,24.00
2022-08-18T07:44:00.731Z,24.10
2022-08-18T07:46:37.613Z,24.21
2022-08-18T07:49:06.408Z,24.12
2022-08-18T07:51:45.968Z,23.97
2022-08-18T07:54:47.834Z,23.83
2022-08-18T07:57:20.070Z,23.42
2022-08-18T07:59:56.329Z,23.53
2022-08-18T08:02:35.436Z,23.48
2022-08-18T08:05:11.999Z,23.64
2022-08-18T08:07:47.196Z,23.48
2022-08-18T08:10:29.745Z,23.32
2022-08-18T08:13:09.282Z,23.34
2022-08-18T08:15:56.204Z,23.33
2022-08-18T08:18:37.932Z,23.52
2022-08-18T08:21:10.916Z,23.73
2022-08-18T08:23:47.597Z,23.91
2022-08-18T08:26:27.912Z,23.82
2022-08-18T08:29:08.953Z,23.96
2022-08-18T08:31:47.061Z,24.15
2022-08-18T08:34:22.175Z,23.83
2022-08-18T08:36:54.939Z,23.81
2022-08-18T08:39:28.712Z,23.81
2022-08-18T08:42:31.459Z,23.88
2022-08-18T08:45:00.971Z,24.15
2022-08-18T08:47:33.910Z,24.19
2022-08-18T08:50:05.736Z,24.13
2022-08-18T08:52:43.415Z,23.89
2022-08-18T08:55:16.616Z,24.10
2022-08-18T08:57:51.513Z,24.19
2022-08-18T09:00:20.083Z,24.26
2022-08-18T09:03:14.695Z,24.13
2022-08-18T09:05:56.769Z,24.24
2022-08-18T09:08:52.012Z,24.23
2022-08-18T09:11:55.206Z,24.27
2022-08-18T09:14:46.401Z,24.30
2022-08-18T09:17:57.800Z,24.24
2022-08-18T09:20:51.211Z,24.40
2022-08-18T09:23:22.049Z,24.58
2022-08-18T09:25:52.445Z,24.72
2022-08-18T09:28:24.791Z,24.85
2022-08-18T09:31:19.892Z,24.84
2022-08-18T09:34:37.378Z,24.78
2022-08-18T09:37:17.453Z,24.67
2022-08-18T09:40:14.572Z,24.57
2022-08-18T09:42:50.365Z,24.51
2022-08-18T09:45:55.338Z,24.19
2022-08-18T09:48:28.284Z,24.16
2022-08-18T09:51:20.767Z,24.19
2022-08-18T09:54:24.876Z,24.20
2022-08-18T09:57:22.420Z,23.97
2022-08-18T10:00:26.532Z,24.15
2022-08-18T10:03:14.088Z,23.99
2022-08-18T10:12:21.623Z,24.21
2022-08-18T10:15:26.978Z,24.01
2022-08-18T10:18:33.269Z,23.96
2022-08-18T10:21:09.782Z,24.06
2022-08-18T10:24:02.708Z,24.18
2022-08-18T10:27:08.203Z,24.27
2022-08-18T10:30:01.843Z,24.44
2022-08-18T10:32:44.388Z,24.60
2022-08-18T10:35:58.793Z,24.61
2022-08-18T10:38:37.165Z,24.76
2022-08-18T10:41:15.739Z,24.73
2022-08-18T10:43:55.846Z,24.76
2022-08-18T10:46:31.915Z,24.73
2022-08-18T10:49:09.366Z,24.47
2022-08-18T10:52:01.418Z,24.66
2022-08-18T10:54:51.659Z,24.68
2022-08-18T10:57:30.550Z,24.73
2022-08-18T11:00:04.034Z,24.65
2022-08-18T11:03:02.602Z,24.38
2022-08-18T11:05:43.179Z,24.59
2022-08-18T11:08:17.798Z,24.79
2022-08-18T11:11:27.621Z,24.74
2022-08-18T11:13:50.790Z,25.05
2022-08-18T11:16:31.876Z,25.43
2022-08-18T11:19:18.185Z,25.42
2022-08-18T11:21:51.427Z,25.55
2022-08-18T11:24:25.058Z,25.54
2022-08-18T11:26:55.020Z,25.65
2022-08-18T11:29:33.191Z,25.56
2022-08-18T11:32:11.056Z,25.43
2022-08-18T11:37:51.305Z,25.37
2022-08-18T11:41:08.802Z,25.29
2022-08-18T11:43:30.022Z,25.48
2022-08-18T11:46:16.602Z,25.70
2022-08-18T11:48:52.891Z,25.90
2022-08-18T11:51:27.336Z,26.09
2022-08-18T11:54:00.119Z,26.07
2022-08-18T11:56:32.345Z,26.14
2022-08-18T11:59:06.210Z,26.19
2022-08-18T12:01:42.262Z,26.23
2022-08-18T12:04:22.717Z,26.48
2022-08-18T12:06:59.683Z,26.71
2022-08-18T12:10:17.044Z,26.62
2022-08-18T12:12:28.217Z,26.42
2022-08-18T12:17:52.167Z,26.36
2022-08-18T12:20:20.859Z,26.37
2022-08-18T12:22:50.446Z,26.52
2022-08-18T12:25:24.492Z,26.57
2022-08-18T12:27:52.885Z,26.52
2022-08-18T12:30:20.783Z,26.50
2022-08-18T12:35:36.420Z,26.80
2022-08-18T12:38:14.016Z,26.91
2022-08-18T12:40:42.826Z,27.05
2022-08-18T12:43:10.767Z,27.18
2022-08-18T12:45:39.236Z,27.21
2022-08-18T12:48:08.092Z,27.32
2022-08-18T12:53:30.507Z,26.82
2022-08-18T12:58:55.514Z,26.88
2022-08-18T13:01:25.008Z,27.03
2022-08-18T13:07:00.097Z,27.31
2022-08-18T13:09:48.008Z,27.47
2022-08-18T13:12:19.932Z,27.57
2022-08-18T13:14:49.828Z,27.70
2022-08-18T13:17:32.861Z,27.83
2022-08-18T13:20:05.162Z,27.79
2022-08-18T13:22:33.511Z,27.78
2022-08-18T13:25:05.255Z,27.87
2022-08-18T13:27:35.697Z,27.93
2022-08-18T13:30:29.635Z,27.91
2022-08-18T13:33:00.251Z,27.80
2022-08-18T13:35:38.396Z,27.71
2022-08-18T13:38:18.914Z,27.63
2022-08-18T13:40:51.823Z,27.61
2022-08-18T13:43:25.914Z,27.70
2022-08-18T13:45:56.302Z,27.54
2022-08-18T13:48:25.538Z,27.48
2022-08-18T13:50:55.698Z,27.47
2022-08-18T13:53:26.321Z,27.41
2022-08-18T13:55:59.723Z,27.17
2022-08-18T13:58:29.009Z,27.17
2022-08-18T14:03:48.223Z,27.18
2022-08-18T14:06:22.194Z,27.19
2022-08-18T14:08:51.520Z,27.27
2022-08-18T14:11:23.666Z,27.50
2022-08-18T14:13:54.156Z,27.62
2022-08-18T14:16:22.926Z,27.82
2022-08-18T14:19:12.889Z,27.99
2022-08-18T14:22:02.998Z,28.13
2022-08-18T14:24:52.186Z,27.96
2022-08-18T14:31:11.486Z,28.00
2022-08-18T14:33:50.480Z,28.06
2022-08-18T14:36:20.554Z,28.16
2022-08-18T14:38:58.290Z,28.08
2022-08-18T14:41:27.362Z,28.14
2022-08-18T14:44:12.554Z,28.17
2022-08-18T14:46:42.030Z,27.89
2022-08-18T14:49:28.123Z,27.91
2022-08-18T14:51:57.313Z,27.85
2022-08-18T14:54:28.328Z,27.84
2022-08-18T14:56:57.447Z,28.00
2022-08-18T14:59:28.402Z,28.17
2022-08-18T15:01:56.202Z,28.17
2022-08-18T15:04:24.170Z,28.33
2022-08-18T15:06:56.069Z,28.22
2022-08-18T15:09:26.946Z,28.25
2022-08-18T15:11:56.737Z,28.34
2022-08-18T15:14:33.166Z,28.42
2022-08-18T15:17:02.843Z,28.48
2022-08-18T15:20:01.575Z,28.03
2022-08-18T15:22:35.929Z,28.20
2022-08-18T15:25:24.188Z,28.29
2022-08-18T15:27:53.003Z,28.34
2022-08-18T15:30:22.930Z,28.44
2022-08-18T15:32:51.267Z,28.49
2022-08-18T15:35:20.427Z,28.51
2022-08-18T15:37:51.430Z,28.38
2022-08-18T15:40:31.169Z,28.42
2022-08-18T15:43:09.757Z,28.42
2022-08-18T15:45:56.043Z,28.43
2022-08-18T15:48:27.103Z,28.21
2022-08-18T15:50:56.147Z,28.12
2022-08-18T15:53:29.769Z,28.29
2022-08-18T15:55:58.398Z,28.30
2022-08-18T15:58:31.998Z,28.14
2022-08-18T16:01:01.457Z,28.30
2022-08-18T16:03:50.011Z,28.35
2022-08-18T16:06:23.603Z,28.45
2022-08-18T16:08:55.856Z,28.47
2022-08-18T16:11:29.018Z,28.46
2022-08-18T16:13:59.169Z,28.42
2022-08-18T16:16:36.157Z,28.42
2022-08-18T16:19:05.845Z,28.36
2022-08-18T16:21:34.064Z,28.37
2022-08-18T16:24:01.794Z,28.42
2022-08-18T16:26:30.149Z,28.41
2022-08-18T16:29:01.300Z,28.40
2022-08-18T16:31:37.038Z,28.38
2022-08-18T16:34:05.822Z,28.49
2022-08-18T16:36:33.545Z,28.54
2022-08-18T16:39:26.028Z,28.55
2022-08-18T16:41:53.783Z,28.54
2022-08-18T16:44:21.664Z,28.49
2022-08-18T16:46:51.733Z,28.48
2022-08-18T16:49:20.800Z,28.29
2022-08-18T16:51:48.535Z,28.05
2022-08-18T16:54:16.397Z,28.06
2022-08-18T16:56:44.150Z,27.89
2022-08-18T17:02:20.029Z,27.50
2022-08-18T17:04:47.862Z,27.50
2022-08-18T17:07:15.632Z,27.52
2022-08-18T17:09:43.407Z,27.55
2022-08-18T17:12:11.305Z,27.59
2022-08-18T17:14:39.250Z,27.18
2022-08-18T17:17:10.427Z,27.06
2022-08-18T17:19:38.370Z,27.06
2022-08-18T17:22:08.103Z,27.15
2022-08-18T17:24:35.954Z,26.96
2022-08-18T17:27:25.842Z,26.92
2022-08-18T17:30:02.564Z,26.88
2022-08-18T17:35:15.900Z,27.00
2022-08-18T17:37:49.250Z,27.04
2022-08-18T17:40:21.602Z,27.07
2022-08-18T17:42:51.508Z,26.91
2022-08-18T17:45:21.939Z,26.83
2022-08-18T17:47:57.626Z,26.86
2022-08-18T17:50:46.730Z,26.90
2022-08-18T17:53:15.533Z,26.73
2022-08-18T17:55:48.353Z,26.73
2022-08-18T17:58:21.764Z,26.77
2022-08-18T18:00:49.549Z,26.82
2022-08-18T18:03:18.714Z,26.81
2022-08-18T18:05:54.182Z,26.82
2022-08-18T18:08:22.040Z,26.71
2022-08-18T18:11:07.640Z,26.62
2022-08-18T18:13:35.526Z,26.55
2022-08-18T18:16:21.690Z,26.39
2022-08-18T18:18:59.943Z,26.34
2022-08-18T18:21:55.368Z,26.27
2022-08-18T18:24:24.043Z,26.33
2022-08-18T18:26:53.192Z,26.35
2022-08-18T18:29:27.252Z,26.37
2022-08-18T18:32:00.482Z,26.36
2022-08-18T18:34:33.786Z,26.36
2022-08-18T18:37:03.092Z,26.33
2022-08-18T18:39:34.199Z,26.30
2022-08-18T18:42:20.464Z,26.24
2022-08-18T18:44:53.790Z,26.17
2022-08-18T18:47:39.977Z,26.14
2022-08-18T18:50:17.144Z,26.06
2022-08-18T18:52:52.429Z,25.96
2022-08-18T18:55:25.657Z,25.96
2022-08-18T18:58:07.999Z,25.95
2022-08-18T19:00:44.623Z,25.89
2022-08-18T19:03:28.556Z,25.81
2022-08-18T19:06:14.024Z,25.76
2022-08-18T19:08:50.876Z,25.59
2022-08-18T19:11:29.079Z,25.53
2022-08-18T19:14:07.529Z,25.52
2022-08-18T19:16:42.407Z,25.55
2022-08-18T19:19:36.729Z,25.55
2022-08-18T19:22:18.609Z,25.55
2022-08-18T19:24:56.109Z,25.53
2022-08-18T19:27:34.256Z,25.51
2022-08-18T19:30:06.961Z,25.46
2022-08-18T19:32:40.756Z,25.44
2022-08-18T19:35:12.824Z,25.42
2022-08-18T19:37:55.212Z,25.35
2022-08-18T19:40:25.669Z,25.29
2022-08-18T19:42:59.992Z,25.18
2022-08-18T19:45:35.506Z,25.18
2022-08-18T19:48:08.825Z,25.17
2022-08-18T19:50:43.419Z,25.15
2022-08-18T19:53:26.003Z,25.09
2022-08-18T19:56:29.433Z,25.02
2022-08-18T19:59:19.390Z,24.99
2022-08-18T20:02:04.994Z,24.96
2022-08-18T20:04:59.175Z,24.93
2022-08-18T20:08:03.173Z,24.92
2022-08-18T20:10:43.840Z,24.85
2022-08-18T20:13:33.851Z,24.79
2022-08-18T20:16:43.556Z,24.72
2022-08-18T20:19:39.590Z,24.65
2022-08-18T20:22:10.460Z,24.63
2022-08-18T20:24:52.127Z,24.57
2022-08-18T20:27:36.403Z,24.48
2022-08-18T20:30:32.502Z,24.48
2022-08-18T20:33:12.437Z,24.47
2022-08-18T20:35:45.784Z,24.44
2022-08-18T20:38:54.364Z,24.41
2022-08-18T20:41:38.109Z,24.37
2022-08-18T20:44:40.318Z,24.36
2022-08-18T20:47:23.875Z,24.27
2022-08-18T20:50:12.621Z,24.24
2022-08-18T20:52:46.685Z,24.19
2022-08-18T20:55:26.514Z,24.16
2022-08-18T20:58:03.599Z,24.17
2022-08-18T21:00:33.149Z,24.12
2022-08-18T21:03:06.497Z,24.04
2022-08-18T21:05:40.540Z,24.00
2022-08-18T21:08:27.575Z,23.98
2022-08-18T21:10:57.860Z,23.92
2022-08-18T21:13:31.021Z,23.93
2022-08-18T21:15:59.843Z,23.85
2022-08-18T21:18:28.379Z,23.86
2022-08-18T21:20:59.501Z,23.84
2022-08-18T21:23:30.710Z,23.82
2022-08-18T21:26:06.606Z,23.82
2022-08-18T21:28:38.864Z,23.80
2022-08-18T21:31:42.727Z,23.77
2022-08-18T21:33:59.102Z,23.73
2022-08-18T21:36:32.415Z,23.71
2022-08-18T21:39:05.659Z,23.64
2022-08-18T21:41:35.062Z,23.58
2022-08-18T21:44:06.737Z,23.53
2022-08-18T21:46:34.969Z,23.48
2022-08-18T21:49:07.565Z,23.43
2022-08-18T21:51:47.382Z,23.39
2022-08-18T21:54:17.396Z,23.33
2022-08-18T21:56:45.801Z,23.27
2022-08-18T21:59:15.877Z,23.23
2022-08-18T22:01:53.090Z,23.22
2022-08-18T22:04:27.171Z,23.13
2022-08-18T22:06:58.890Z,23.07
2022-08-18T22:09:48.911Z,23.07
2022-08-18T22:12:48.264Z,23.06
2022-08-18T22:15:20.133Z,22.93
2022-08-18T22:17:54.977Z,22.82
2022-08-18T22:20:57.206Z,22.78
2022-08-18T22:23:55.717Z,22.75
2022-08-18T22:26:27.171Z,22.71
2022-08-18T22:28:59.252Z,22.68
2022-08-18T22:31:30.844Z,22.62
2022-08-18T22:34:03.097Z,22.54
2022-08-18T22:36:33.576Z,22.49
2022-08-18T22:39:02.902Z,22.41
2022-08-18T22:41:32.122Z,22.41
2022-08-18T22:44:00.768Z,22.37
2022-08-18T22:46:29.045Z,22.34
2022-08-18T22:48:56.741Z,22.35
2022-08-18T22:51:27.590Z,22.35
2022-08-18T22:53:56.768Z,22.31
2022-08-18T22:56:35.114Z,22.27
2022-08-18T22:59:13.783Z,22.27
2022-08-18T23:01:48.100Z,22.24
2022-08-18T23:04:17.740Z,22.23
2022-08-18T23:06:51.524Z,22.21
2022-08-18T23:09:24.239Z,22.14
2022-08-18T23:11:54.994Z,22.10
2022-08-18T23:14:23.301Z,22.05
2022-08-18T23:16:51.618Z,22.03
2022-08-18T23:19:21.483Z,22.01
2022-08-18T23:21:49.864Z,21.93
2022-08-18T23:24:18.875Z,21.91
2022-08-18T23:26:47.252Z,21.89
2022-08-18T23:29:16.416Z,21.87
2022-08-18T23:31:46.280Z,21.77
2022-08-18T23:34:17.425Z,21.71
2022-08-18T23:36:46.898Z,21.66
2022-08-18T23:39:15.216Z,21.64
2022-08-18T23:41:42.996Z,21.64
2022-08-18T23:44:11.446Z,21.63
2022-08-18T23:46:40.543Z,21.61
2022-08-18T23:49:10.765Z,21.58
2022-08-18T23:51:42.603Z,21.53
2022-08-18T23:54:13.500Z,21.49
2022-08-18T23:56:41.564Z,21.44
2022-08-18T23:59:09.780Z,21.42
